UAL2667 KIAD-KDEN
Flight info
| Callsign | UAL2667 |
|---|---|
| Flight time | 3h 36m |
| Altitude | 30000 |
| Route | BUNZZ3 RAMAY Q72 HACKS J149 EMPTY EDENS/N0471F320 DSM OBH BRWRY LAWGR4 |
| Aircraft | B739/M-SDE2E3FGHIRWXY/LB1 |
Departure
| Time | 2026-05-06 01:10 |
|---|---|
| Airport | Washington Dulles International Airport (KIAD) |
Arrival
| Time | 2026-05-06 04:46 |
|---|---|
| Airport | Denver International Airport (KDEN) |
| Time | Latitude | Longitude | Altitude | Speed | Heading |
|---|---|---|---|---|---|
| 2026-05-06 00:28 | 38.94590 | -77.45011 | 291 ft | 0 kts | 176° |
| 2026-05-06 00:51 | 38.94597 | -77.45012 | 291 ft | 4 kts | 176° |
| 2026-05-06 00:51 | 38.94624 | -77.45014 | 294 ft | 4 kts | 176° |
| 2026-05-06 00:51 | 38.94647 | -77.45014 | 297 ft | 4 kts | 205° |
| 2026-05-06 00:51 | 38.94661 | -77.44993 | 294 ft | 4 kts | 258° |
| 2026-05-06 00:52 | 38.94663 | -77.44970 | 295 ft | 1 kts | 270° |
| 2026-05-06 00:52 | 38.94663 | -77.44966 | 291 ft | 0 kts | 270° |
| 2026-05-06 00:56 | 38.94663 | -77.44973 | 295 ft | 2 kts | 270° |
| 2026-05-06 00:56 | 38.94663 | -77.44995 | 291 ft | 3 kts | 270° |
| 2026-05-06 00:56 | 38.94663 | -77.45032 | 291 ft | 5 kts | 271° |
| 2026-05-06 00:57 | 38.94664 | -77.45082 | 291 ft | 6 kts | 271° |
| 2026-05-06 00:57 | 38.94664 | -77.45137 | 291 ft | 6 kts | 271° |
| 2026-05-06 00:57 | 38.94665 | -77.45191 | 291 ft | 6 kts | 270° |
| 2026-05-06 00:57 | 38.94665 | -77.45245 | 291 ft | 6 kts | 270° |
| 2026-05-06 00:58 | 38.94666 | -77.45297 | 291 ft | 6 kts | 270° |
| 2026-05-06 00:58 | 38.94666 | -77.45349 | 291 ft | 6 kts | 270° |
| 2026-05-06 00:58 | 38.94666 | -77.45402 | 291 ft | 6 kts | 270° |
| 2026-05-06 00:58 | 38.94667 | -77.45451 | 291 ft | 3 kts | 270° |
| 2026-05-06 00:59 | 38.94667 | -77.45477 | 293 ft | 2 kts | 270° |
| 2026-05-06 00:59 | 38.94667 | -77.45498 | 291 ft | 2 kts | 270° |
| 2026-05-06 00:59 | 38.94667 | -77.45510 | 295 ft | 0 kts | 270° |
| 2026-05-06 01:01 | 38.94667 | -77.45514 | 295 ft | 2 kts | 270° |
| 2026-05-06 01:01 | 38.94667 | -77.45560 | 299 ft | 7 kts | 269° |
| 2026-05-06 01:01 | 38.94634 | -77.45606 | 291 ft | 7 kts | 197° |
| 2026-05-06 01:02 | 38.94581 | -77.45610 | 293 ft | 8 kts | 181° |
| 2026-05-06 01:02 | 38.94529 | -77.45611 | 294 ft | 8 kts | 180° |
| 2026-05-06 01:02 | 38.94472 | -77.45611 | 294 ft | 9 kts | 180° |
| 2026-05-06 01:02 | 38.94409 | -77.45612 | 296 ft | 10 kts | 180° |
| 2026-05-06 01:03 | 38.94335 | -77.45613 | 294 ft | 11 kts | 180° |
| 2026-05-06 01:03 | 38.94253 | -77.45614 | 296 ft | 12 kts | 180° |
| 2026-05-06 01:03 | 38.94172 | -77.45615 | 294 ft | 11 kts | 180° |
| 2026-05-06 01:03 | 38.94094 | -77.45616 | 294 ft | 11 kts | 180° |
| 2026-05-06 01:04 | 38.94018 | -77.45617 | 291 ft | 11 kts | 180° |
| 2026-05-06 01:04 | 38.93943 | -77.45617 | 293 ft | 11 kts | 180° |
| 2026-05-06 01:04 | 38.93871 | -77.45617 | 294 ft | 10 kts | 181° |
| 2026-05-06 01:04 | 38.93801 | -77.45619 | 291 ft | 10 kts | 180° |
| 2026-05-06 01:05 | 38.93733 | -77.45619 | 293 ft | 10 kts | 177° |
| 2026-05-06 01:05 | 38.93679 | -77.45574 | 295 ft | 9 kts | 132° |
| 2026-05-06 01:05 | 38.93637 | -77.45513 | 295 ft | 9 kts | 132° |
| 2026-05-06 01:05 | 38.93579 | -77.45501 | 293 ft | 9 kts | 199° |
| 2026-05-06 01:06 | 38.93523 | -77.45528 | 291 ft | 7 kts | 200° |
| 2026-05-06 01:06 | 38.93480 | -77.45548 | 291 ft | 3 kts | 200° |
| 2026-05-06 01:06 | 38.93472 | -77.45552 | 295 ft | 0 kts | 200° |
| 2026-05-06 01:07 | 38.93468 | -77.45554 | 296 ft | 3 kts | 200° |
| 2026-05-06 01:07 | 38.93430 | -77.45572 | 293 ft | 9 kts | 200° |
| 2026-05-06 01:08 | 38.93380 | -77.45598 | 293 ft | 5 kts | 214° |
| 2026-05-06 01:08 | 38.93377 | -77.45639 | 293 ft | 4 kts | 289° |
| 2026-05-06 01:08 | 38.93378 | -77.45644 | 293 ft | 0 kts | 290° |
| 2026-05-06 01:08 | 38.93380 | -77.45650 | 293 ft | 7 kts | 290° |
| 2026-05-06 01:09 | 38.93481 | -77.45997 | 295 ft | 77 kts | 290° |
| 2026-05-06 01:09 | 38.93747 | -77.46903 | 299 ft | 138 kts | 291° |
| 2026-05-06 01:09 | 38.94136 | -77.48272 | 320 ft | 183 kts | 289° |
| 2026-05-06 01:09 | 38.94635 | -77.49813 | 896 ft | 187 kts | 288° |
| 2026-05-06 01:10 | 38.95046 | -77.51365 | 1612 ft | 180 kts | 267° |
| 2026-05-06 01:10 | 38.94951 | -77.52917 | 2145 ft | 175 kts | 248° |
| 2026-05-06 01:10 | 38.94531 | -77.54423 | 2499 ft | 184 kts | 242° |
| 2026-05-06 01:10 | 38.94015 | -77.55990 | 2869 ft | 197 kts | 242° |
| 2026-05-06 01:11 | 38.93311 | -77.57541 | 3204 ft | 207 kts | 226° |
| 2026-05-06 01:11 | 38.92609 | -77.58394 | 3393 ft | 215 kts | 217° |
| 2026-05-06 01:11 | 38.90661 | -77.59238 | 3913 ft | 233 kts | 185° |
| 2026-05-06 01:11 | 38.88995 | -77.59138 | 4627 ft | 242 kts | 181° |
| 2026-05-06 01:12 | 38.87868 | -77.59010 | 5111 ft | 246 kts | 180° |
| 2026-05-06 01:12 | 38.86158 | -77.58799 | 5908 ft | 248 kts | 180° |
| 2026-05-06 01:12 | 38.83843 | -77.58512 | 6789 ft | 256 kts | 180° |
| 2026-05-06 01:12 | 38.82637 | -77.58364 | 7241 ft | 258 kts | 180° |
| 2026-05-06 01:13 | 38.80869 | -77.58482 | 7828 ft | 259 kts | 198° |
| 2026-05-06 01:13 | 38.79261 | -77.59458 | 8501 ft | 258 kts | 219° |
| 2026-05-06 01:13 | 38.78039 | -77.61205 | 9092 ft | 264 kts | 243° |
| 2026-05-06 01:13 | 38.77545 | -77.63431 | 9793 ft | 268 kts | 264° |
| 2026-05-06 01:14 | 38.78443 | -77.68236 | 10619 ft | 299 kts | 289° |
| 2026-05-06 01:14 | 38.79291 | -77.70774 | 10780 ft | 320 kts | 290° |
| 2026-05-06 01:14 | 38.80208 | -77.73471 | 10937 ft | 340 kts | 291° |
| 2026-05-06 01:15 | 38.81179 | -77.76327 | 11060 ft | 359 kts | 291° |
| 2026-05-06 01:15 | 38.82190 | -77.79327 | 11205 ft | 375 kts | 290° |
| 2026-05-06 01:15 | 38.83233 | -77.82444 | 11567 ft | 383 kts | 290° |
| 2026-05-06 01:15 | 38.84286 | -77.85602 | 12162 ft | 385 kts | 290° |
| 2026-05-06 01:16 | 38.85336 | -77.88769 | 12726 ft | 386 kts | 290° |
| 2026-05-06 01:16 | 38.86391 | -77.91962 | 13222 ft | 390 kts | 290° |
| 2026-05-06 01:16 | 38.87449 | -77.95175 | 13728 ft | 392 kts | 290° |
| 2026-05-06 01:16 | 38.88510 | -77.98403 | 14160 ft | 395 kts | 290° |
| 2026-05-06 01:17 | 38.89584 | -78.01674 | 14568 ft | 398 kts | 290° |
| 2026-05-06 01:17 | 38.90660 | -78.04955 | 15015 ft | 400 kts | 289° |
| 2026-05-06 01:17 | 38.91742 | -78.08260 | 15479 ft | 402 kts | 289° |
| 2026-05-06 01:17 | 38.92829 | -78.11579 | 15890 ft | 405 kts | 289° |
| 2026-05-06 01:18 | 38.93924 | -78.14929 | 16311 ft | 408 kts | 289° |
| 2026-05-06 01:18 | 38.95009 | -78.18252 | 16743 ft | 410 kts | 289° |
| 2026-05-06 01:18 | 38.95967 | -78.21738 | 17143 ft | 409 kts | 281° |
| 2026-05-06 01:18 | 38.96436 | -78.25282 | 17531 ft | 407 kts | 271° |
| 2026-05-06 01:19 | 38.96609 | -78.28912 | 17952 ft | 408 kts | 270° |
| 2026-05-06 01:19 | 38.96829 | -78.32568 | 18292 ft | 411 kts | 272° |
| 2026-05-06 01:19 | 38.97085 | -78.36240 | 18632 ft | 413 kts | 272° |
| 2026-05-06 01:19 | 38.97354 | -78.39920 | 19070 ft | 413 kts | 272° |
| 2026-05-06 01:20 | 38.97622 | -78.43604 | 19443 ft | 414 kts | 272° |
| 2026-05-06 01:20 | 38.97886 | -78.47291 | 19780 ft | 416 kts | 272° |
| 2026-05-06 01:20 | 38.98146 | -78.51000 | 20118 ft | 417 kts | 272° |
| 2026-05-06 01:20 | 38.98403 | -78.54721 | 20474 ft | 418 kts | 273° |
| 2026-05-06 01:21 | 38.98655 | -78.58403 | 20794 ft | 419 kts | 273° |
| 2026-05-06 01:21 | 38.98909 | -78.62154 | 21098 ft | 422 kts | 273° |
| 2026-05-06 01:21 | 38.99162 | -78.65922 | 21432 ft | 423 kts | 273° |
| 2026-05-06 01:21 | 38.99413 | -78.69692 | 21735 ft | 424 kts | 273° |
| 2026-05-06 01:22 | 38.99666 | -78.73481 | 22033 ft | 426 kts | 274° |
| 2026-05-06 01:22 | 38.99917 | -78.77275 | 22335 ft | 427 kts | 274° |
| 2026-05-06 01:22 | 39.00168 | -78.81094 | 22611 ft | 429 kts | 274° |
| 2026-05-06 01:22 | 39.00419 | -78.84923 | 22866 ft | 431 kts | 274° |
| 2026-05-06 01:23 | 39.00669 | -78.88766 | 23119 ft | 433 kts | 274° |
| 2026-05-06 01:23 | 39.00919 | -78.92628 | 23376 ft | 434 kts | 274° |
| 2026-05-06 01:23 | 39.01169 | -78.96507 | 23601 ft | 436 kts | 274° |
| 2026-05-06 01:23 | 39.01419 | -79.00403 | 23816 ft | 437 kts | 274° |
| 2026-05-06 01:24 | 39.01667 | -79.04299 | 24037 ft | 438 kts | 274° |
| 2026-05-06 01:24 | 39.01916 | -79.08210 | 24247 ft | 439 kts | 274° |
| 2026-05-06 01:24 | 39.02164 | -79.12145 | 24471 ft | 441 kts | 274° |
| 2026-05-06 01:24 | 39.02408 | -79.16030 | 24687 ft | 442 kts | 274° |
| 2026-05-06 01:25 | 39.02655 | -79.19979 | 24909 ft | 443 kts | 274° |
| 2026-05-06 01:25 | 39.02900 | -79.23932 | 25079 ft | 444 kts | 274° |
| 2026-05-06 01:25 | 39.03145 | -79.27901 | 25321 ft | 445 kts | 274° |
| 2026-05-06 01:25 | 39.03389 | -79.31867 | 25518 ft | 446 kts | 274° |
| 2026-05-06 01:26 | 39.03633 | -79.35851 | 25792 ft | 444 kts | 274° |
| 2026-05-06 01:26 | 39.03873 | -79.39804 | 26097 ft | 443 kts | 274° |
| 2026-05-06 01:26 | 39.04111 | -79.43748 | 26417 ft | 441 kts | 274° |
| 2026-05-06 01:26 | 39.04348 | -79.47691 | 26734 ft | 440 kts | 274° |
| 2026-05-06 01:27 | 39.04579 | -79.51563 | 27049 ft | 439 kts | 274° |
| 2026-05-06 01:27 | 39.04812 | -79.55492 | 27372 ft | 438 kts | 274° |
| 2026-05-06 01:27 | 39.05042 | -79.59389 | 27724 ft | 436 kts | 274° |
| 2026-05-06 01:27 | 39.05271 | -79.63275 | 28043 ft | 435 kts | 275° |
| 2026-05-06 01:28 | 39.05402 | -79.65525 | 28292 ft | 433 kts | 275° |
| 2026-05-06 01:28 | 39.05625 | -79.69351 | 28676 ft | 432 kts | 275° |
| 2026-05-06 01:28 | 39.05847 | -79.73204 | 29078 ft | 429 kts | 275° |
| 2026-05-06 01:28 | 39.06067 | -79.77024 | 29536 ft | 426 kts | 275° |
| 2026-05-06 01:29 | 39.06284 | -79.80821 | 29927 ft | 424 kts | 275° |
| 2026-05-06 01:29 | 39.06497 | -79.84563 | 29886 ft | 424 kts | 275° |
| 2026-05-06 01:29 | 39.06922 | -79.92116 | 29923 ft | 423 kts | 275° |
| 2026-05-06 01:30 | 39.07344 | -79.99660 | 29905 ft | 422 kts | 275° |
| 2026-05-06 01:30 | 39.07759 | -80.07194 | 29901 ft | 422 kts | 275° |
| 2026-05-06 01:31 | 39.08168 | -80.14724 | 29871 ft | 422 kts | 275° |
| 2026-05-06 01:31 | 39.08573 | -80.22258 | 29870 ft | 421 kts | 275° |
| 2026-05-06 01:32 | 39.08973 | -80.29787 | 29866 ft | 421 kts | 275° |
| 2026-05-06 01:32 | 39.09365 | -80.37250 | 29864 ft | 421 kts | 275° |
| 2026-05-06 01:33 | 39.09755 | -80.44766 | 29874 ft | 420 kts | 275° |
| 2026-05-06 01:33 | 39.10045 | -80.50423 | 29862 ft | 420 kts | 275° |
| 2026-05-06 01:34 | 39.10422 | -80.57876 | 29851 ft | 419 kts | 274° |
| 2026-05-06 01:34 | 39.10797 | -80.65357 | 29862 ft | 418 kts | 274° |
| 2026-05-06 01:35 | 39.11165 | -80.72819 | 29848 ft | 418 kts | 274° |
| 2026-05-06 01:35 | 39.11529 | -80.80290 | 29852 ft | 416 kts | 274° |
| 2026-05-06 01:36 | 39.11888 | -80.87741 | 29864 ft | 416 kts | 274° |
| 2026-05-06 01:36 | 39.12240 | -80.95171 | 29866 ft | 415 kts | 274° |
| 2026-05-06 01:37 | 39.12589 | -81.02556 | 29869 ft | 416 kts | 274° |
| 2026-05-06 01:37 | 39.13553 | -81.09881 | 29866 ft | 416 kts | 286° |
| 2026-05-06 01:38 | 39.15901 | -81.16708 | 29890 ft | 419 kts | 296° |
| 2026-05-06 01:38 | 39.18676 | -81.23312 | 29873 ft | 419 kts | 295° |
| 2026-05-06 01:39 | 39.21404 | -81.29955 | 29875 ft | 419 kts | 295° |
| 2026-05-06 01:39 | 39.24106 | -81.36561 | 29871 ft | 419 kts | 295° |
| 2026-05-06 01:40 | 39.26827 | -81.43219 | 29871 ft | 419 kts | 295° |
| 2026-05-06 01:40 | 39.29542 | -81.49869 | 29876 ft | 418 kts | 295° |
| 2026-05-06 01:41 | 39.32251 | -81.56530 | 29872 ft | 418 kts | 295° |
| 2026-05-06 01:41 | 39.34950 | -81.63189 | 29866 ft | 418 kts | 295° |
| 2026-05-06 01:42 | 39.37452 | -81.69368 | 29868 ft | 418 kts | 295° |
| 2026-05-06 01:42 | 39.40142 | -81.76027 | 29860 ft | 417 kts | 294° |
| 2026-05-06 01:43 | 39.42821 | -81.82681 | 29860 ft | 416 kts | 294° |
| 2026-05-06 01:43 | 39.45476 | -81.89292 | 29857 ft | 416 kts | 294° |
| 2026-05-06 01:44 | 39.48138 | -81.95934 | 29850 ft | 415 kts | 294° |
| 2026-05-06 01:44 | 39.50797 | -82.02582 | 29844 ft | 415 kts | 294° |
| 2026-05-06 01:45 | 39.53427 | -82.09172 | 29858 ft | 414 kts | 294° |
| 2026-05-06 01:45 | 39.56072 | -82.15817 | 29850 ft | 413 kts | 294° |
| 2026-05-06 01:46 | 39.58693 | -82.22412 | 29859 ft | 413 kts | 294° |
| 2026-05-06 01:46 | 39.61326 | -82.29055 | 29846 ft | 414 kts | 294° |
| 2026-05-06 01:47 | 39.63954 | -82.35698 | 29854 ft | 413 kts | 294° |
| 2026-05-06 01:47 | 39.66578 | -82.42346 | 29856 ft | 413 kts | 294° |
| 2026-05-06 01:48 | 39.69196 | -82.48993 | 29850 ft | 413 kts | 294° |
| 2026-05-06 01:48 | 39.71793 | -82.55602 | 29854 ft | 413 kts | 294° |
| 2026-05-06 01:49 | 39.74406 | -82.62266 | 29851 ft | 413 kts | 294° |
| 2026-05-06 01:49 | 39.77014 | -82.68934 | 29855 ft | 414 kts | 293° |
| 2026-05-06 01:50 | 39.79623 | -82.75617 | 29852 ft | 414 kts | 293° |
| 2026-05-06 01:50 | 39.82226 | -82.82299 | 29852 ft | 414 kts | 293° |
| 2026-05-06 01:51 | 39.84805 | -82.88935 | 29849 ft | 413 kts | 293° |
| 2026-05-06 01:51 | 39.87414 | -82.95663 | 29854 ft | 413 kts | 293° |
| 2026-05-06 01:52 | 39.89988 | -83.02317 | 29870 ft | 413 kts | 293° |
| 2026-05-06 01:52 | 39.92572 | -83.09012 | 29858 ft | 413 kts | 293° |
| 2026-05-06 01:53 | 39.95154 | -83.15713 | 29861 ft | 414 kts | 293° |
| 2026-05-06 01:53 | 39.97158 | -83.22691 | 29866 ft | 409 kts | 281° |
| 2026-05-06 01:54 | 39.98511 | -83.29849 | 29868 ft | 409 kts | 282° |
| 2026-05-06 01:54 | 39.99950 | -83.37046 | 29852 ft | 410 kts | 282° |
| 2026-05-06 01:55 | 40.01393 | -83.44253 | 29857 ft | 410 kts | 282° |
| 2026-05-06 01:55 | 40.02827 | -83.51466 | 29848 ft | 410 kts | 282° |
| 2026-05-06 01:56 | 40.04240 | -83.58616 | 29856 ft | 409 kts | 282° |
| 2026-05-06 01:56 | 40.05652 | -83.65795 | 29869 ft | 408 kts | 282° |
| 2026-05-06 01:57 | 40.07062 | -83.72997 | 29874 ft | 409 kts | 282° |
| 2026-05-06 01:57 | 40.08467 | -83.80192 | 29876 ft | 408 kts | 282° |
| 2026-05-06 01:58 | 40.09864 | -83.87375 | 29875 ft | 407 kts | 282° |
| 2026-05-06 01:58 | 40.11256 | -83.94553 | 29877 ft | 407 kts | 282° |
| 2026-05-06 01:59 | 40.12630 | -84.01670 | 29879 ft | 406 kts | 282° |
| 2026-05-06 01:59 | 40.14008 | -84.08830 | 29878 ft | 406 kts | 282° |
| 2026-05-06 02:00 | 40.15380 | -84.15988 | 29877 ft | 406 kts | 282° |
| 2026-05-06 02:00 | 40.16748 | -84.23145 | 29888 ft | 405 kts | 282° |
| 2026-05-06 02:01 | 40.18109 | -84.30298 | 29890 ft | 405 kts | 282° |
| 2026-05-06 02:01 | 40.19458 | -84.37408 | 29886 ft | 404 kts | 282° |
| 2026-05-06 02:02 | 40.20811 | -84.44567 | 29887 ft | 404 kts | 282° |
| 2026-05-06 02:02 | 40.22144 | -84.51650 | 29895 ft | 403 kts | 282° |
| 2026-05-06 02:03 | 40.23481 | -84.58777 | 29888 ft | 403 kts | 281° |
| 2026-05-06 02:03 | 40.24814 | -84.65907 | 29892 ft | 402 kts | 281° |
| 2026-05-06 02:04 | 40.25479 | -84.69476 | 29996 ft | 404 kts | 281° |
| 2026-05-06 02:04 | 40.26140 | -84.73029 | 30394 ft | 400 kts | 281° |
| 2026-05-06 02:04 | 40.26792 | -84.76534 | 30924 ft | 392 kts | 282° |
| 2026-05-06 02:04 | 40.27434 | -84.79990 | 31414 ft | 387 kts | 282° |
| 2026-05-06 02:05 | 40.28063 | -84.83385 | 31923 ft | 380 kts | 282° |
| 2026-05-06 02:05 | 40.28681 | -84.86728 | 32459 ft | 373 kts | 282° |
| 2026-05-06 02:05 | 40.29285 | -84.90006 | 32982 ft | 367 kts | 282° |
| 2026-05-06 02:05 | 40.29882 | -84.93247 | 33322 ft | 365 kts | 282° |
| 2026-05-06 02:06 | 40.30470 | -84.96449 | 33557 ft | 365 kts | 282° |
| 2026-05-06 02:06 | 40.31061 | -84.99675 | 33765 ft | 364 kts | 282° |
| 2026-05-06 02:06 | 40.31654 | -85.02913 | 33881 ft | 363 kts | 282° |
| 2026-05-06 02:06 | 40.32243 | -85.06141 | 33888 ft | 364 kts | 282° |
| 2026-05-06 02:07 | 40.33422 | -85.12608 | 33905 ft | 364 kts | 282° |
| 2026-05-06 02:07 | 40.34589 | -85.19027 | 33900 ft | 364 kts | 282° |
| 2026-05-06 02:08 | 40.35759 | -85.25486 | 33892 ft | 364 kts | 282° |
| 2026-05-06 02:08 | 40.36925 | -85.31947 | 33883 ft | 363 kts | 282° |
| 2026-05-06 02:09 | 40.38085 | -85.38391 | 33881 ft | 363 kts | 282° |
| 2026-05-06 02:09 | 40.39241 | -85.44842 | 33881 ft | 363 kts | 282° |
| 2026-05-06 02:10 | 40.40387 | -85.51252 | 33888 ft | 362 kts | 282° |
| 2026-05-06 02:10 | 40.41534 | -85.57692 | 33893 ft | 362 kts | 281° |
| 2026-05-06 02:11 | 40.42672 | -85.64111 | 33894 ft | 362 kts | 281° |
| 2026-05-06 02:11 | 40.43814 | -85.70564 | 33883 ft | 362 kts | 281° |
| 2026-05-06 02:12 | 40.44951 | -85.77019 | 33883 ft | 362 kts | 281° |
| 2026-05-06 02:12 | 40.45518 | -85.80245 | 34038 ft | 362 kts | 281° |
| 2026-05-06 02:12 | 40.46078 | -85.83433 | 34033 ft | 362 kts | 281° |
| 2026-05-06 02:13 | 40.47020 | -85.88816 | 34037 ft | 363 kts | 281° |
| 2026-05-06 02:13 | 40.48334 | -85.96347 | 34043 ft | 363 kts | 281° |
| 2026-05-06 02:14 | 40.48707 | -85.98491 | 33895 ft | 363 kts | 281° |
| 2026-05-06 02:14 | 40.49457 | -86.02812 | 33885 ft | 363 kts | 281° |
| 2026-05-06 02:14 | 40.50389 | -86.08194 | 33891 ft | 363 kts | 281° |
| 2026-05-06 02:15 | 40.51507 | -86.14665 | 33888 ft | 363 kts | 281° |
| 2026-05-06 02:15 | 40.52620 | -86.21138 | 33898 ft | 363 kts | 281° |
| 2026-05-06 02:16 | 40.53726 | -86.27590 | 33876 ft | 364 kts | 281° |
| 2026-05-06 02:16 | 40.54836 | -86.34091 | 33906 ft | 364 kts | 281° |
| 2026-05-06 02:17 | 40.55942 | -86.40586 | 33900 ft | 363 kts | 280° |
| 2026-05-06 02:17 | 40.57038 | -86.47048 | 33897 ft | 363 kts | 280° |
| 2026-05-06 02:18 | 40.58132 | -86.53526 | 33903 ft | 362 kts | 280° |
| 2026-05-06 02:18 | 40.59214 | -86.59955 | 33900 ft | 362 kts | 280° |
| 2026-05-06 02:19 | 40.60301 | -86.66432 | 33897 ft | 362 kts | 280° |
| 2026-05-06 02:19 | 40.61382 | -86.72900 | 33888 ft | 362 kts | 280° |
| 2026-05-06 02:20 | 40.62994 | -86.82593 | 33890 ft | 361 kts | 280° |
| 2026-05-06 02:21 | 40.64064 | -86.89050 | 33896 ft | 360 kts | 280° |
| 2026-05-06 02:21 | 40.65129 | -86.95510 | 33892 ft | 360 kts | 279° |
| 2026-05-06 02:22 | 40.66182 | -87.01917 | 33895 ft | 360 kts | 279° |
| 2026-05-06 02:22 | 40.67239 | -87.08370 | 33895 ft | 360 kts | 279° |
| 2026-05-06 02:23 | 40.68291 | -87.14817 | 33899 ft | 359 kts | 279° |
| 2026-05-06 02:23 | 40.69332 | -87.21221 | 33891 ft | 359 kts | 279° |
| 2026-05-06 02:24 | 40.70374 | -87.27653 | 33900 ft | 359 kts | 279° |
| 2026-05-06 02:24 | 40.71413 | -87.34090 | 33904 ft | 358 kts | 279° |
| 2026-05-06 02:25 | 40.72447 | -87.40526 | 33901 ft | 358 kts | 279° |
| 2026-05-06 02:25 | 40.73477 | -87.46961 | 33897 ft | 358 kts | 279° |
| 2026-05-06 02:26 | 40.74498 | -87.53356 | 33893 ft | 358 kts | 279° |
| 2026-05-06 02:26 | 40.75521 | -87.59793 | 33890 ft | 358 kts | 279° |
| 2026-05-06 02:27 | 40.76539 | -87.66227 | 33891 ft | 358 kts | 279° |
| 2026-05-06 02:27 | 40.77553 | -87.72651 | 33896 ft | 358 kts | 279° |
| 2026-05-06 02:28 | 40.78558 | -87.79047 | 33896 ft | 357 kts | 279° |
| 2026-05-06 02:28 | 40.79564 | -87.85474 | 33898 ft | 357 kts | 279° |
| 2026-05-06 02:29 | 40.80565 | -87.91897 | 33896 ft | 357 kts | 279° |
| 2026-05-06 02:29 | 40.81562 | -87.98315 | 33899 ft | 356 kts | 278° |
| 2026-05-06 02:30 | 40.82547 | -88.04680 | 33895 ft | 356 kts | 278° |
| 2026-05-06 02:30 | 40.83533 | -88.11080 | 33891 ft | 355 kts | 278° |
| 2026-05-06 02:31 | 40.84515 | -88.17476 | 33892 ft | 355 kts | 278° |
| 2026-05-06 02:31 | 40.85494 | -88.23877 | 33898 ft | 354 kts | 278° |
| 2026-05-06 02:32 | 40.86460 | -88.30215 | 33907 ft | 354 kts | 278° |
| 2026-05-06 02:32 | 40.87426 | -88.36587 | 33910 ft | 353 kts | 278° |
| 2026-05-06 02:33 | 40.88390 | -88.42960 | 33915 ft | 353 kts | 278° |
| 2026-05-06 02:33 | 40.88708 | -88.45071 | 33918 ft | 353 kts | 278° |
| 2026-05-06 02:34 | 40.90298 | -88.55664 | 33929 ft | 353 kts | 278° |
| 2026-05-06 02:34 | 40.91247 | -88.62016 | 33926 ft | 352 kts | 278° |
| 2026-05-06 02:35 | 40.92193 | -88.68377 | 33927 ft | 352 kts | 278° |
| 2026-05-06 02:35 | 40.93136 | -88.74740 | 33927 ft | 352 kts | 278° |
| 2026-05-06 02:36 | 40.94074 | -88.81092 | 33921 ft | 352 kts | 278° |
| 2026-05-06 02:36 | 40.95004 | -88.87418 | 33914 ft | 352 kts | 277° |
| 2026-05-06 02:37 | 40.95935 | -88.93777 | 33912 ft | 352 kts | 277° |
| 2026-05-06 02:37 | 40.96864 | -89.00148 | 33907 ft | 352 kts | 277° |
| 2026-05-06 02:38 | 40.97781 | -89.06462 | 33906 ft | 352 kts | 277° |
| 2026-05-06 02:38 | 40.98701 | -89.12822 | 33903 ft | 352 kts | 277° |
| 2026-05-06 02:39 | 40.99618 | -89.19192 | 33906 ft | 352 kts | 277° |
| 2026-05-06 02:39 | 41.00534 | -89.25571 | 33902 ft | 352 kts | 277° |
| 2026-05-06 02:40 | 41.01439 | -89.31909 | 33908 ft | 351 kts | 277° |
| 2026-05-06 02:40 | 41.02344 | -89.38269 | 33903 ft | 352 kts | 277° |
| 2026-05-06 02:41 | 41.03248 | -89.44645 | 33906 ft | 352 kts | 276° |
| 2026-05-06 02:41 | 41.04147 | -89.51019 | 33903 ft | 352 kts | 276° |
| 2026-05-06 02:42 | 41.05039 | -89.57370 | 33905 ft | 352 kts | 276° |
| 2026-05-06 02:42 | 41.05932 | -89.63750 | 33906 ft | 352 kts | 276° |
| 2026-05-06 02:43 | 41.06821 | -89.70133 | 33901 ft | 352 kts | 276° |
| 2026-05-06 02:43 | 41.07708 | -89.76518 | 33904 ft | 352 kts | 276° |
| 2026-05-06 02:44 | 41.08585 | -89.82865 | 33905 ft | 352 kts | 276° |
| 2026-05-06 02:44 | 41.09465 | -89.89265 | 33902 ft | 352 kts | 276° |
| 2026-05-06 02:45 | 41.10342 | -89.95663 | 33901 ft | 352 kts | 276° |
| 2026-05-06 02:45 | 41.11216 | -90.02067 | 33906 ft | 352 kts | 276° |
| 2026-05-06 02:46 | 41.12028 | -90.08433 | 33911 ft | 352 kts | 274° |
| 2026-05-06 02:46 | 41.12690 | -90.14864 | 33921 ft | 352 kts | 274° |
| 2026-05-06 02:47 | 41.13338 | -90.21308 | 33915 ft | 352 kts | 274° |
| 2026-05-06 02:47 | 41.13993 | -90.27743 | 33925 ft | 352 kts | 274° |
| 2026-05-06 02:48 | 41.14649 | -90.34148 | 33925 ft | 352 kts | 273° |
| 2026-05-06 02:48 | 41.15310 | -90.40599 | 33929 ft | 352 kts | 273° |
| 2026-05-06 02:49 | 41.15967 | -90.47049 | 33926 ft | 352 kts | 273° |
| 2026-05-06 02:49 | 41.16621 | -90.53490 | 33925 ft | 353 kts | 273° |
| 2026-05-06 02:50 | 41.17269 | -90.59915 | 33921 ft | 353 kts | 273° |
| 2026-05-06 02:50 | 41.17917 | -90.66386 | 33903 ft | 353 kts | 273° |
| 2026-05-06 02:51 | 41.18562 | -90.72854 | 33908 ft | 353 kts | 273° |
| 2026-05-06 02:51 | 41.19201 | -90.79294 | 33910 ft | 354 kts | 273° |
| 2026-05-06 02:52 | 41.19840 | -90.85774 | 33916 ft | 354 kts | 272° |
| 2026-05-06 02:52 | 41.20476 | -90.92273 | 33923 ft | 354 kts | 272° |
| 2026-05-06 02:53 | 41.21108 | -90.98766 | 33924 ft | 355 kts | 272° |
| 2026-05-06 02:53 | 41.21738 | -91.05267 | 33931 ft | 355 kts | 272° |
| 2026-05-06 02:54 | 41.22365 | -91.11782 | 33933 ft | 355 kts | 272° |
| 2026-05-06 02:54 | 41.22984 | -91.18256 | 33935 ft | 355 kts | 272° |
| 2026-05-06 02:55 | 41.23605 | -91.24786 | 33937 ft | 356 kts | 272° |
| 2026-05-06 02:55 | 41.24222 | -91.31314 | 33928 ft | 356 kts | 272° |
| 2026-05-06 02:56 | 41.24837 | -91.37864 | 33932 ft | 356 kts | 272° |
| 2026-05-06 02:56 | 41.25444 | -91.44374 | 33935 ft | 357 kts | 272° |
| 2026-05-06 02:57 | 41.26051 | -91.50921 | 33936 ft | 357 kts | 272° |
| 2026-05-06 02:57 | 41.26655 | -91.57478 | 33938 ft | 357 kts | 272° |
| 2026-05-06 02:58 | 41.27256 | -91.64041 | 33935 ft | 357 kts | 272° |
| 2026-05-06 02:58 | 41.27850 | -91.70564 | 33941 ft | 357 kts | 271° |
| 2026-05-06 02:59 | 41.28444 | -91.77138 | 33940 ft | 358 kts | 271° |
| 2026-05-06 02:59 | 41.29035 | -91.83710 | 33939 ft | 358 kts | 271° |
| 2026-05-06 03:00 | 41.29523 | -91.89179 | 33943 ft | 358 kts | 271° |
| 2026-05-06 03:00 | 41.30202 | -91.96839 | 33937 ft | 358 kts | 271° |
| 2026-05-06 03:01 | 41.30784 | -92.03440 | 33936 ft | 358 kts | 271° |
| 2026-05-06 03:01 | 41.31263 | -92.08913 | 33931 ft | 359 kts | 271° |
| 2026-05-06 03:02 | 41.31837 | -92.15519 | 33942 ft | 359 kts | 271° |
| 2026-05-06 03:02 | 41.32409 | -92.22138 | 33944 ft | 359 kts | 271° |
| 2026-05-06 03:03 | 41.32973 | -92.28705 | 33950 ft | 359 kts | 271° |
| 2026-05-06 03:03 | 41.33538 | -92.35333 | 33944 ft | 359 kts | 271° |
| 2026-05-06 03:04 | 41.34095 | -92.41911 | 33958 ft | 359 kts | 271° |
| 2026-05-06 03:04 | 41.34652 | -92.48541 | 33960 ft | 360 kts | 271° |
| 2026-05-06 03:05 | 41.35205 | -92.55171 | 33964 ft | 360 kts | 271° |
| 2026-05-06 03:05 | 41.35751 | -92.61763 | 33963 ft | 361 kts | 271° |
| 2026-05-06 03:06 | 41.36299 | -92.68408 | 33957 ft | 361 kts | 271° |
| 2026-05-06 03:06 | 41.36842 | -92.75065 | 33967 ft | 361 kts | 271° |
| 2026-05-06 03:07 | 41.37380 | -92.81686 | 33975 ft | 361 kts | 271° |
| 2026-05-06 03:07 | 41.37915 | -92.88338 | 33973 ft | 362 kts | 271° |
| 2026-05-06 03:08 | 41.38448 | -92.95004 | 33972 ft | 362 kts | 271° |
| 2026-05-06 03:08 | 41.38978 | -93.01677 | 33972 ft | 362 kts | 271° |
| 2026-05-06 03:09 | 41.39504 | -93.08354 | 33975 ft | 362 kts | 271° |
| 2026-05-06 03:09 | 41.40023 | -93.14996 | 33973 ft | 363 kts | 271° |
| 2026-05-06 03:10 | 41.40544 | -93.21713 | 33972 ft | 364 kts | 271° |
| 2026-05-06 03:10 | 41.41061 | -93.28429 | 33969 ft | 364 kts | 271° |
| 2026-05-06 03:11 | 41.41571 | -93.35102 | 33970 ft | 365 kts | 271° |
| 2026-05-06 03:11 | 41.42082 | -93.41841 | 33976 ft | 365 kts | 271° |
| 2026-05-06 03:12 | 41.42589 | -93.48583 | 33984 ft | 365 kts | 271° |
| 2026-05-06 03:12 | 41.43093 | -93.55333 | 33993 ft | 366 kts | 271° |
| 2026-05-06 03:13 | 41.43592 | -93.62061 | 33994 ft | 366 kts | 271° |
| 2026-05-06 03:13 | 41.43850 | -93.68831 | 33999 ft | 364 kts | 266° |
| 2026-05-06 03:14 | 41.43877 | -93.75559 | 33988 ft | 365 kts | 267° |
| 2026-05-06 03:14 | 41.43911 | -93.82350 | 33989 ft | 366 kts | 267° |
| 2026-05-06 03:15 | 41.43946 | -93.89102 | 33982 ft | 366 kts | 267° |
| 2026-05-06 03:15 | 41.43979 | -93.95906 | 33991 ft | 367 kts | 267° |
| 2026-05-06 03:16 | 41.44008 | -94.02714 | 33973 ft | 368 kts | 266° |
| 2026-05-06 03:16 | 41.44033 | -94.09534 | 33982 ft | 368 kts | 266° |
| 2026-05-06 03:17 | 41.44054 | -94.16371 | 33975 ft | 369 kts | 266° |
| 2026-05-06 03:17 | 41.44070 | -94.23171 | 33982 ft | 369 kts | 266° |
| 2026-05-06 03:18 | 41.44083 | -94.30026 | 33981 ft | 369 kts | 266° |
| 2026-05-06 03:18 | 41.44092 | -94.36890 | 33980 ft | 370 kts | 266° |
| 2026-05-06 03:19 | 41.44096 | -94.43754 | 33982 ft | 371 kts | 266° |
| 2026-05-06 03:19 | 41.44097 | -94.50635 | 33982 ft | 371 kts | 266° |
| 2026-05-06 03:20 | 41.44090 | -94.60950 | 33991 ft | 372 kts | 266° |
| 2026-05-06 03:20 | 41.44080 | -94.67869 | 33994 ft | 373 kts | 266° |
| 2026-05-06 03:21 | 41.44066 | -94.74753 | 34000 ft | 374 kts | 266° |
| 2026-05-06 03:21 | 41.44048 | -94.81684 | 33995 ft | 374 kts | 266° |
| 2026-05-06 03:22 | 41.44026 | -94.88624 | 33998 ft | 375 kts | 266° |
| 2026-05-06 03:22 | 41.43999 | -94.95578 | 33998 ft | 375 kts | 266° |
| 2026-05-06 03:23 | 41.43969 | -95.02539 | 33996 ft | 376 kts | 266° |
| 2026-05-06 03:23 | 41.43934 | -95.09479 | 34001 ft | 376 kts | 266° |
| 2026-05-06 03:24 | 41.43895 | -95.16458 | 33999 ft | 377 kts | 266° |
| 2026-05-06 03:24 | 41.43851 | -95.23440 | 34011 ft | 377 kts | 266° |
| 2026-05-06 03:25 | 41.43803 | -95.30437 | 34024 ft | 377 kts | 266° |
| 2026-05-06 03:25 | 41.43751 | -95.37438 | 34022 ft | 378 kts | 266° |
| 2026-05-06 03:26 | 41.43695 | -95.44439 | 34025 ft | 378 kts | 266° |
| 2026-05-06 03:26 | 41.43634 | -95.51459 | 34019 ft | 378 kts | 266° |
| 2026-05-06 03:27 | 41.43570 | -95.58430 | 34017 ft | 378 kts | 266° |
| 2026-05-06 03:27 | 41.43501 | -95.65448 | 34020 ft | 379 kts | 266° |
| 2026-05-06 03:28 | 41.43427 | -95.72482 | 34027 ft | 379 kts | 266° |
| 2026-05-06 03:28 | 41.43349 | -95.79512 | 34023 ft | 379 kts | 266° |
| 2026-05-06 03:29 | 41.43267 | -95.86532 | 34024 ft | 379 kts | 266° |
| 2026-05-06 03:29 | 41.43181 | -95.93522 | 34019 ft | 379 kts | 266° |
| 2026-05-06 03:30 | 41.43091 | -96.00516 | 34033 ft | 379 kts | 266° |
| 2026-05-06 03:30 | 41.42996 | -96.07574 | 34049 ft | 379 kts | 266° |
| 2026-05-06 03:31 | 41.42897 | -96.14594 | 34056 ft | 379 kts | 266° |
| 2026-05-06 03:31 | 41.42793 | -96.21614 | 34034 ft | 379 kts | 266° |
| 2026-05-06 03:32 | 41.42686 | -96.28599 | 34030 ft | 379 kts | 266° |
| 2026-05-06 03:32 | 41.42574 | -96.35638 | 34040 ft | 379 kts | 266° |
| 2026-05-06 03:33 | 41.42458 | -96.42656 | 34049 ft | 379 kts | 266° |
| 2026-05-06 03:33 | 41.42338 | -96.49639 | 34047 ft | 379 kts | 266° |
| 2026-05-06 03:34 | 41.42213 | -96.56662 | 34044 ft | 379 kts | 266° |
| 2026-05-06 03:34 | 41.42084 | -96.63699 | 34049 ft | 379 kts | 266° |
| 2026-05-06 03:35 | 41.41950 | -96.70734 | 34049 ft | 380 kts | 266° |
| 2026-05-06 03:35 | 41.41812 | -96.77779 | 34044 ft | 380 kts | 266° |
| 2026-05-06 03:36 | 41.41671 | -96.84785 | 34044 ft | 380 kts | 266° |
| 2026-05-06 03:36 | 41.41524 | -96.91838 | 34044 ft | 380 kts | 266° |
| 2026-05-06 03:37 | 41.41374 | -96.98839 | 34053 ft | 380 kts | 266° |
| 2026-05-06 03:37 | 41.41219 | -97.05886 | 34053 ft | 380 kts | 266° |
| 2026-05-06 03:38 | 41.41059 | -97.12928 | 34063 ft | 380 kts | 265° |
| 2026-05-06 03:38 | 41.40896 | -97.19941 | 34064 ft | 380 kts | 265° |
| 2026-05-06 03:39 | 41.40728 | -97.26978 | 34067 ft | 380 kts | 265° |
| 2026-05-06 03:39 | 41.40556 | -97.34015 | 34065 ft | 380 kts | 265° |
| 2026-05-06 03:40 | 41.40379 | -97.41068 | 34068 ft | 381 kts | 265° |
| 2026-05-06 03:40 | 41.40198 | -97.48122 | 34064 ft | 381 kts | 265° |
| 2026-05-06 03:41 | 41.40012 | -97.55185 | 34067 ft | 381 kts | 265° |
| 2026-05-06 03:41 | 41.39823 | -97.62206 | 34062 ft | 381 kts | 265° |
| 2026-05-06 03:42 | 41.39629 | -97.69281 | 34063 ft | 382 kts | 265° |
| 2026-05-06 03:42 | 41.39430 | -97.76356 | 34059 ft | 382 kts | 265° |
| 2026-05-06 03:43 | 41.39226 | -97.83424 | 34058 ft | 382 kts | 265° |
| 2026-05-06 03:43 | 41.39020 | -97.90462 | 34054 ft | 382 kts | 265° |
| 2026-05-06 03:44 | 41.38807 | -97.97550 | 34059 ft | 382 kts | 265° |
| 2026-05-06 03:44 | 41.38591 | -98.04594 | 34054 ft | 382 kts | 265° |
| 2026-05-06 03:45 | 41.38371 | -98.11666 | 34054 ft | 382 kts | 265° |
| 2026-05-06 03:45 | 41.38146 | -98.18750 | 34058 ft | 382 kts | 265° |
| 2026-05-06 03:46 | 41.37917 | -98.25828 | 34059 ft | 383 kts | 265° |
| 2026-05-06 03:46 | 41.37668 | -98.32913 | 34055 ft | 382 kts | 263° |
| 2026-05-06 03:47 | 41.36580 | -98.39759 | 34057 ft | 381 kts | 251° |
| 2026-05-06 03:47 | 41.34884 | -98.46461 | 34056 ft | 381 kts | 252° |
| 2026-05-06 03:48 | 41.33511 | -98.52047 | 34054 ft | 381 kts | 252° |
| 2026-05-06 03:48 | 41.31865 | -98.58761 | 34057 ft | 381 kts | 252° |
| 2026-05-06 03:49 | 41.30222 | -98.65437 | 34056 ft | 381 kts | 252° |
| 2026-05-06 03:49 | 41.28565 | -98.72142 | 34053 ft | 381 kts | 252° |
| 2026-05-06 03:50 | 41.26901 | -98.78853 | 34054 ft | 382 kts | 252° |
| 2026-05-06 03:50 | 41.25234 | -98.85559 | 34053 ft | 382 kts | 252° |
| 2026-05-06 03:51 | 41.23575 | -98.92211 | 34049 ft | 382 kts | 252° |
| 2026-05-06 03:51 | 41.21897 | -98.98918 | 34047 ft | 382 kts | 252° |
| 2026-05-06 03:52 | 41.20218 | -99.05613 | 34047 ft | 382 kts | 252° |
| 2026-05-06 03:52 | 41.18532 | -99.12317 | 34044 ft | 382 kts | 252° |
| 2026-05-06 03:53 | 41.16841 | -99.19022 | 34052 ft | 383 kts | 252° |
| 2026-05-06 03:53 | 41.15157 | -99.25681 | 34047 ft | 383 kts | 251° |
| 2026-05-06 03:54 | 41.13456 | -99.32390 | 34048 ft | 383 kts | 251° |
| 2026-05-06 03:54 | 41.11746 | -99.39111 | 34045 ft | 384 kts | 251° |
| 2026-05-06 03:55 | 41.10036 | -99.45816 | 34045 ft | 384 kts | 251° |
| 2026-05-06 03:55 | 41.08319 | -99.52531 | 34045 ft | 384 kts | 251° |
| 2026-05-06 03:56 | 41.06605 | -99.59214 | 34048 ft | 385 kts | 251° |
| 2026-05-06 03:56 | 41.04875 | -99.65941 | 34056 ft | 385 kts | 251° |
| 2026-05-06 03:57 | 41.03152 | -99.72621 | 34053 ft | 385 kts | 251° |
| 2026-05-06 03:57 | 41.01412 | -99.79348 | 34056 ft | 386 kts | 251° |
| 2026-05-06 03:58 | 40.99664 | -99.86087 | 34058 ft | 386 kts | 251° |
| 2026-05-06 03:58 | 40.97926 | -99.92772 | 34055 ft | 387 kts | 251° |
| 2026-05-06 03:59 | 40.96166 | -99.99520 | 34051 ft | 387 kts | 251° |
| 2026-05-06 03:59 | 40.94405 | -100.06257 | 34054 ft | 387 kts | 251° |
| 2026-05-06 04:00 | 40.92646 | -100.12963 | 34069 ft | 388 kts | 251° |
| 2026-05-06 04:00 | 40.90870 | -100.19720 | 34048 ft | 388 kts | 251° |
| 2026-05-06 04:01 | 40.89099 | -100.26436 | 34051 ft | 388 kts | 251° |
| 2026-05-06 04:01 | 40.87313 | -100.33191 | 34055 ft | 389 kts | 251° |
| 2026-05-06 04:02 | 40.85522 | -100.39948 | 34071 ft | 389 kts | 251° |
| 2026-05-06 04:02 | 40.83724 | -100.46712 | 34066 ft | 390 kts | 251° |
| 2026-05-06 04:03 | 40.81933 | -100.53433 | 34065 ft | 390 kts | 251° |
| 2026-05-06 04:03 | 40.80128 | -100.60192 | 34060 ft | 390 kts | 251° |
| 2026-05-06 04:04 | 40.78349 | -100.66962 | 34061 ft | 390 kts | 253° |
| 2026-05-06 04:04 | 40.77119 | -100.73886 | 34066 ft | 391 kts | 257° |
| 2026-05-06 04:05 | 40.76021 | -100.80921 | 34068 ft | 391 kts | 257° |
| 2026-05-06 04:05 | 40.74869 | -100.87935 | 34064 ft | 391 kts | 257° |
| 2026-05-06 04:06 | 40.73682 | -100.94937 | 34066 ft | 391 kts | 257° |
| 2026-05-06 04:06 | 40.72490 | -101.01899 | 34074 ft | 392 kts | 257° |
| 2026-05-06 04:07 | 40.71286 | -101.08914 | 34063 ft | 392 kts | 257° |
| 2026-05-06 04:07 | 40.70073 | -101.15928 | 34072 ft | 392 kts | 257° |
| 2026-05-06 04:08 | 40.68844 | -101.22953 | 34068 ft | 393 kts | 257° |
| 2026-05-06 04:08 | 40.67617 | -101.29936 | 34077 ft | 393 kts | 257° |
| 2026-05-06 04:09 | 40.66377 | -101.36983 | 34073 ft | 394 kts | 257° |
| 2026-05-06 04:09 | 40.65134 | -101.44016 | 34080 ft | 394 kts | 257° |
| 2026-05-06 04:10 | 40.63893 | -101.51019 | 34077 ft | 394 kts | 257° |
| 2026-05-06 04:10 | 40.62638 | -101.58070 | 34089 ft | 394 kts | 257° |
| 2026-05-06 04:11 | 40.61386 | -101.65076 | 34077 ft | 395 kts | 257° |
| 2026-05-06 04:11 | 40.60128 | -101.72098 | 34075 ft | 391 kts | 257° |
| 2026-05-06 04:12 | 40.58886 | -101.78994 | 34080 ft | 387 kts | 257° |
| 2026-05-06 04:12 | 40.57641 | -101.85892 | 34073 ft | 386 kts | 257° |
| 2026-05-06 04:13 | 40.56395 | -101.92771 | 34070 ft | 386 kts | 257° |
| 2026-05-06 04:13 | 40.55150 | -101.99603 | 34074 ft | 386 kts | 257° |
| 2026-05-06 04:14 | 40.53875 | -102.06493 | 34056 ft | 388 kts | 257° |
| 2026-05-06 04:14 | 40.52590 | -102.13400 | 34059 ft | 389 kts | 257° |
| 2026-05-06 04:15 | 40.51302 | -102.20306 | 33912 ft | 394 kts | 257° |
| 2026-05-06 04:15 | 40.50640 | -102.23853 | 33687 ft | 395 kts | 257° |
| 2026-05-06 04:15 | 40.49993 | -102.27310 | 33472 ft | 393 kts | 256° |
| 2026-05-06 04:16 | 40.49341 | -102.30791 | 33257 ft | 392 kts | 256° |
| 2026-05-06 04:16 | 40.48690 | -102.34257 | 33028 ft | 389 kts | 256° |
| 2026-05-06 04:16 | 40.48043 | -102.37697 | 32813 ft | 387 kts | 256° |
| 2026-05-06 04:16 | 40.47399 | -102.41118 | 32603 ft | 385 kts | 256° |
| 2026-05-06 04:17 | 40.46754 | -102.44532 | 32395 ft | 384 kts | 256° |
| 2026-05-06 04:17 | 40.46111 | -102.47937 | 32179 ft | 383 kts | 256° |
| 2026-05-06 04:17 | 40.45468 | -102.51329 | 31974 ft | 383 kts | 256° |
| 2026-05-06 04:17 | 40.44824 | -102.54729 | 31768 ft | 383 kts | 256° |
| 2026-05-06 04:18 | 40.44314 | -102.57417 | 31581 ft | 382 kts | 256° |
| 2026-05-06 04:18 | 40.43798 | -102.60129 | 31046 ft | 381 kts | 256° |
| 2026-05-06 04:18 | 40.43158 | -102.63490 | 30509 ft | 377 kts | 256° |
| 2026-05-06 04:18 | 40.42523 | -102.66813 | 29980 ft | 372 kts | 256° |
| 2026-05-06 04:19 | 40.41905 | -102.70031 | 29675 ft | 363 kts | 256° |
| 2026-05-06 04:19 | 40.41286 | -102.73238 | 29352 ft | 363 kts | 256° |
| 2026-05-06 04:19 | 40.40659 | -102.76486 | 29061 ft | 372 kts | 256° |
| 2026-05-06 04:19 | 40.40017 | -102.79808 | 28746 ft | 376 kts | 256° |
| 2026-05-06 04:20 | 40.39378 | -102.83113 | 28454 ft | 369 kts | 256° |
| 2026-05-06 04:20 | 40.38751 | -102.86349 | 28228 ft | 364 kts | 256° |
| 2026-05-06 04:20 | 40.38126 | -102.89571 | 27977 ft | 366 kts | 256° |
| 2026-05-06 04:20 | 40.37495 | -102.92824 | 27681 ft | 370 kts | 256° |
| 2026-05-06 04:21 | 40.36860 | -102.96085 | 27390 ft | 369 kts | 256° |
| 2026-05-06 04:21 | 40.36227 | -102.99331 | 27101 ft | 366 kts | 256° |
| 2026-05-06 04:21 | 40.35597 | -103.02560 | 26825 ft | 364 kts | 256° |
| 2026-05-06 04:21 | 40.34970 | -103.05782 | 26550 ft | 363 kts | 256° |
| 2026-05-06 04:22 | 40.34354 | -103.08947 | 26277 ft | 362 kts | 256° |
| 2026-05-06 04:22 | 40.33731 | -103.12146 | 25995 ft | 361 kts | 256° |
| 2026-05-06 04:22 | 40.33109 | -103.15337 | 25725 ft | 361 kts | 256° |
| 2026-05-06 04:23 | 40.31866 | -103.21699 | 25177 ft | 360 kts | 256° |
| 2026-05-06 04:23 | 40.31241 | -103.24887 | 24897 ft | 360 kts | 256° |
| 2026-05-06 04:23 | 40.30625 | -103.28023 | 24626 ft | 360 kts | 256° |
| 2026-05-06 04:23 | 40.29997 | -103.31192 | 24352 ft | 359 kts | 256° |
| 2026-05-06 04:24 | 40.29365 | -103.34361 | 24081 ft | 359 kts | 256° |
| 2026-05-06 04:24 | 40.28733 | -103.37531 | 23799 ft | 358 kts | 256° |
| 2026-05-06 04:24 | 40.28103 | -103.40683 | 23500 ft | 357 kts | 256° |
| 2026-05-06 04:24 | 40.27476 | -103.43824 | 23187 ft | 356 kts | 256° |
| 2026-05-06 04:25 | 40.26849 | -103.46958 | 22887 ft | 354 kts | 256° |
| 2026-05-06 04:25 | 40.26227 | -103.50066 | 22604 ft | 352 kts | 256° |
| 2026-05-06 04:25 | 40.25614 | -103.53120 | 22344 ft | 350 kts | 256° |
| 2026-05-06 04:25 | 40.24995 | -103.56196 | 22077 ft | 349 kts | 256° |
| 2026-05-06 04:26 | 40.24383 | -103.59261 | 21811 ft | 347 kts | 256° |
| 2026-05-06 04:26 | 40.23777 | -103.62322 | 21547 ft | 347 kts | 256° |
| 2026-05-06 04:26 | 40.23173 | -103.65378 | 21286 ft | 346 kts | 256° |
| 2026-05-06 04:26 | 40.22569 | -103.68428 | 21029 ft | 345 kts | 256° |
| 2026-05-06 04:27 | 40.21974 | -103.71432 | 20774 ft | 345 kts | 256° |
| 2026-05-06 04:27 | 40.21368 | -103.74482 | 20507 ft | 345 kts | 257° |
| 2026-05-06 04:27 | 40.20761 | -103.77530 | 20241 ft | 345 kts | 257° |
| 2026-05-06 04:27 | 40.20155 | -103.80572 | 19982 ft | 345 kts | 257° |
| 2026-05-06 04:28 | 40.19561 | -103.83546 | 19716 ft | 339 kts | 257° |
| 2026-05-06 04:28 | 40.18969 | -103.86502 | 19451 ft | 331 kts | 257° |
| 2026-05-06 04:28 | 40.18392 | -103.89377 | 19201 ft | 323 kts | 256° |
| 2026-05-06 04:28 | 40.17611 | -103.92096 | 18959 ft | 318 kts | 242° |
| 2026-05-06 04:29 | 40.16428 | -103.94491 | 18799 ft | 309 kts | 240° |
| 2026-05-06 04:29 | 40.15287 | -103.96845 | 18588 ft | 303 kts | 241° |
| 2026-05-06 04:29 | 40.14199 | -103.99139 | 18416 ft | 299 kts | 241° |
| 2026-05-06 04:29 | 40.13110 | -104.01445 | 18216 ft | 298 kts | 241° |
| 2026-05-06 04:30 | 40.12024 | -104.03750 | 18015 ft | 297 kts | 241° |
| 2026-05-06 04:30 | 40.10943 | -104.06039 | 17814 ft | 295 kts | 241° |
| 2026-05-06 04:30 | 40.09864 | -104.08322 | 17581 ft | 296 kts | 241° |
| 2026-05-06 04:30 | 40.08778 | -104.10617 | 17384 ft | 296 kts | 241° |
| 2026-05-06 04:31 | 40.07694 | -104.12903 | 17184 ft | 296 kts | 241° |
| 2026-05-06 04:31 | 40.06609 | -104.15190 | 16997 ft | 296 kts | 241° |
| 2026-05-06 04:31 | 40.05512 | -104.17501 | 16642 ft | 301 kts | 240° |
| 2026-05-06 04:31 | 40.04400 | -104.19838 | 16294 ft | 303 kts | 240° |
| 2026-05-06 04:32 | 40.03289 | -104.22171 | 15935 ft | 301 kts | 240° |
| 2026-05-06 04:32 | 40.02199 | -104.24458 | 15584 ft | 299 kts | 240° |
| 2026-05-06 04:32 | 40.01103 | -104.26756 | 15236 ft | 297 kts | 240° |
| 2026-05-06 04:32 | 40.00014 | -104.29038 | 14895 ft | 295 kts | 240° |
| 2026-05-06 04:33 | 39.98931 | -104.31310 | 14547 ft | 293 kts | 240° |
| 2026-05-06 04:33 | 39.97854 | -104.33566 | 14210 ft | 292 kts | 240° |
| 2026-05-06 04:33 | 39.96795 | -104.35783 | 13872 ft | 291 kts | 240° |
| 2026-05-06 04:33 | 39.95728 | -104.38014 | 13496 ft | 289 kts | 239° |
| 2026-05-06 04:34 | 39.94666 | -104.40233 | 13138 ft | 288 kts | 239° |
| 2026-05-06 04:34 | 39.93610 | -104.42438 | 12859 ft | 284 kts | 239° |
| 2026-05-06 04:34 | 39.92572 | -104.44611 | 12633 ft | 280 kts | 239° |
| 2026-05-06 04:34 | 39.91543 | -104.46764 | 12421 ft | 281 kts | 239° |
| 2026-05-06 04:35 | 39.90789 | -104.48159 | 12262 ft | 285 kts | 228° |
| 2026-05-06 04:35 | 39.88533 | -104.49839 | 11978 ft | 284 kts | 194° |
| 2026-05-06 04:35 | 39.86574 | -104.50062 | 11768 ft | 281 kts | 181° |
| 2026-05-06 04:35 | 39.85257 | -104.50051 | 11614 ft | 278 kts | 182° |
| 2026-05-06 04:36 | 39.83334 | -104.50056 | 11393 ft | 273 kts | 182° |
| 2026-05-06 04:36 | 39.81499 | -104.50074 | 11342 ft | 258 kts | 182° |
| 2026-05-06 04:36 | 39.79749 | -104.50098 | 11213 ft | 245 kts | 182° |
| 2026-05-06 04:36 | 39.78070 | -104.50161 | 10995 ft | 238 kts | 183° |
| 2026-05-06 04:37 | 39.76437 | -104.50229 | 10810 ft | 233 kts | 182° |
| 2026-05-06 04:37 | 39.74826 | -104.50282 | 10618 ft | 229 kts | 182° |
| 2026-05-06 04:37 | 39.73268 | -104.50313 | 10462 ft | 224 kts | 181° |
| 2026-05-06 04:37 | 39.71721 | -104.50323 | 10313 ft | 220 kts | 180° |
| 2026-05-06 04:38 | 39.70193 | -104.50309 | 10167 ft | 218 kts | 179° |
| 2026-05-06 04:38 | 39.68683 | -104.50278 | 10022 ft | 215 kts | 178° |
| 2026-05-06 04:38 | 39.67198 | -104.50240 | 9888 ft | 211 kts | 178° |
| 2026-05-06 04:38 | 39.65738 | -104.50203 | 9735 ft | 208 kts | 178° |
| 2026-05-06 04:39 | 39.64299 | -104.50173 | 9629 ft | 206 kts | 179° |
| 2026-05-06 04:39 | 39.62863 | -104.50184 | 9513 ft | 208 kts | 186° |
| 2026-05-06 04:39 | 39.61538 | -104.50904 | 9371 ft | 211 kts | 221° |
| 2026-05-06 04:39 | 39.60784 | -104.52500 | 9292 ft | 217 kts | 255° |
| 2026-05-06 04:40 | 39.60775 | -104.54488 | 9235 ft | 223 kts | 275° |
| 2026-05-06 04:40 | 39.60991 | -104.56487 | 9094 ft | 224 kts | 277° |
| 2026-05-06 04:40 | 39.61220 | -104.58478 | 8996 ft | 223 kts | 277° |
| 2026-05-06 04:40 | 39.61451 | -104.60448 | 8972 ft | 218 kts | 278° |
| 2026-05-06 04:41 | 39.62001 | -104.62257 | 8958 ft | 217 kts | 309° |
| 2026-05-06 04:41 | 39.63083 | -104.63552 | 8964 ft | 210 kts | 318° |
| 2026-05-06 04:41 | 39.64181 | -104.64817 | 8732 ft | 215 kts | 317° |
| 2026-05-06 04:41 | 39.65393 | -104.65944 | 8508 ft | 215 kts | 341° |
| 2026-05-06 04:42 | 39.66842 | -104.66123 | 8335 ft | 207 kts | 3° |
| 2026-05-06 04:42 | 39.68278 | -104.66156 | 8124 ft | 205 kts | 358° |
| 2026-05-06 04:42 | 39.69705 | -104.66204 | 7878 ft | 205 kts | 0° |
| 2026-05-06 04:42 | 39.71119 | -104.66198 | 7649 ft | 201 kts | 1° |
| 2026-05-06 04:43 | 39.72513 | -104.66180 | 7351 ft | 198 kts | 1° |
| 2026-05-06 04:43 | 39.73864 | -104.66163 | 7132 ft | 191 kts | 1° |
| 2026-05-06 04:43 | 39.75184 | -104.66147 | 7043 ft | 192 kts | 2° |
| 2026-05-06 04:43 | 39.76530 | -104.66131 | 6853 ft | 190 kts | 2° |
| 2026-05-06 04:44 | 39.77817 | -104.66116 | 6647 ft | 181 kts | 2° |
| 2026-05-06 04:44 | 39.79041 | -104.66101 | 6413 ft | 168 kts | 2° |
| 2026-05-06 04:44 | 39.80176 | -104.66086 | 6062 ft | 156 kts | 1° |
| 2026-05-06 04:44 | 39.81220 | -104.66074 | 5832 ft | 149 kts | 359° |
| 2026-05-06 04:45 | 39.82269 | -104.66062 | 5621 ft | 152 kts | 360° |
| 2026-05-06 04:45 | 39.83346 | -104.66048 | 5409 ft | 155 kts | 360° |
| 2026-05-06 04:45 | 39.84361 | -104.66037 | 5366 ft | 131 kts | 0° |
| 2026-05-06 04:45 | 39.85126 | -104.66029 | 5362 ft | 88 kts | 1° |
| 2026-05-06 04:46 | 39.85595 | -104.66021 | 5364 ft | 46 kts | 0° |
| 2026-05-06 04:46 | 39.85794 | -104.66018 | 5365 ft | 21 kts | 0° |
| 2026-05-06 04:46 | 39.85940 | -104.66016 | 5365 ft | 21 kts | 0° |
| 2026-05-06 04:46 | 39.86016 | -104.66060 | 5364 ft | 10 kts | 281° |
| 2026-05-06 04:47 | 39.86016 | -104.66149 | 5365 ft | 10 kts | 269° |
| 2026-05-06 04:47 | 39.86017 | -104.66236 | 5365 ft | 9 kts | 272° |
| 2026-05-06 04:47 | 39.86018 | -104.66319 | 5365 ft | 9 kts | 270° |
| 2026-05-06 04:47 | 39.86019 | -104.66403 | 5365 ft | 10 kts | 270° |
| 2026-05-06 04:48 | 39.86019 | -104.66491 | 5365 ft | 10 kts | 271° |
| 2026-05-06 04:48 | 39.86051 | -104.66563 | 5363 ft | 9 kts | 307° |
| 2026-05-06 04:48 | 39.86061 | -104.66643 | 5364 ft | 9 kts | 270° |
| 2026-05-06 04:48 | 39.86061 | -104.66725 | 5365 ft | 9 kts | 270° |
| 2026-05-06 04:49 | 39.86061 | -104.66804 | 5365 ft | 9 kts | 271° |
| 2026-05-06 04:49 | 39.86062 | -104.66880 | 5364 ft | 8 kts | 272° |
| 2026-05-06 04:49 | 39.86063 | -104.66954 | 5365 ft | 8 kts | 271° |
| 2026-05-06 04:49 | 39.86064 | -104.67026 | 5365 ft | 8 kts | 271° |
| 2026-05-06 04:50 | 39.86064 | -104.67097 | 5363 ft | 8 kts | 270° |
| 2026-05-06 04:50 | 39.86065 | -104.67164 | 5363 ft | 7 kts | 270° |
| 2026-05-06 04:50 | 39.86065 | -104.67235 | 5364 ft | 8 kts | 270° |
| 2026-05-06 04:50 | 39.86066 | -104.67315 | 5365 ft | 9 kts | 270° |
| 2026-05-06 04:51 | 39.86067 | -104.67402 | 5365 ft | 10 kts | 270° |
| 2026-05-06 04:51 | 39.86050 | -104.67484 | 5362 ft | 9 kts | 243° |
| 2026-05-06 04:51 | 39.86021 | -104.67558 | 5363 ft | 9 kts | 243° |
| 2026-05-06 04:51 | 39.86005 | -104.67635 | 5365 ft | 9 kts | 271° |
| 2026-05-06 04:52 | 39.86006 | -104.67714 | 5365 ft | 9 kts | 270° |
| 2026-05-06 04:52 | 39.86006 | -104.67789 | 5364 ft | 8 kts | 270° |
| 2026-05-06 04:52 | 39.86006 | -104.67864 | 5365 ft | 8 kts | 270° |
| 2026-05-06 04:52 | 39.85999 | -104.67915 | 5365 ft | 3 kts | 229° |
| 2026-05-06 04:53 | 39.85984 | -104.67915 | 5364 ft | 2 kts | 173° |
| 2026-05-06 04:53 | 39.85968 | -104.67914 | 5363 ft | 2 kts | 179° |
| 2026-05-06 04:53 | 39.85953 | -104.67914 | 5364 ft | 2 kts | 179° |
| 2026-05-06 04:53 | 39.85943 | -104.67914 | 5364 ft | 0 kts | 180° |
| 2026-05-06 04:54 | 39.85940 | -104.67914 | 5364 ft | 0 kts | 180° |